Terminal Aerodrome Forecast
Issued by NWS

Home | Current Version | Previous Version | Graphics & Text | Print | Product List | Glossary On
Versions: 1 2 3 4 5 6 7 8 9 10 11 12 13 14 15 16 17
000
FTUS43 KOAX 240543
TAFCDR
TAF
KCDR 240543Z 2406/2506 26010KT P6SM FEW250
     FM241900 29018G26KT P6SM VCSH SCT018 BKN030
     FM250200 30018G28KT P6SM SCT030 BKN050=

USA.gov is the U.S. government's official web portal to all federal, state and local government web resources and services.